createdAt,value
2018-04-19T00:02:26.554Z,101625.83
2018-04-19T00:04:54.074Z,101621.27
2018-04-19T00:07:21.563Z,101618.40
2018-04-19T00:09:49.066Z,101618.97
2018-04-19T00:12:16.586Z,101623.06
2018-04-19T00:14:44.065Z,101621.62
2018-04-19T00:17:11.918Z,101616.38
2018-04-19T00:19:39.397Z,101618.81
2018-04-19T00:22:06.876Z,101615.20
2018-04-19T00:24:34.390Z,101613.14
2018-04-19T00:27:01.866Z,101615.27
2018-04-19T00:29:29.508Z,101611.34
2018-04-19T00:31:57.026Z,101611.27
2018-04-19T00:34:24.516Z,101604.91
2018-04-19T00:36:52.049Z,101606.47
2018-04-19T00:39:19.537Z,101601.50
2018-04-19T00:41:47.302Z,101611.06
2018-04-19T00:44:14.785Z,101600.72
2018-04-19T00:46:42.267Z,101600.02
2018-04-19T00:49:09.782Z,101603.37
2018-04-19T00:51:37.266Z,101603.70
2018-04-19T00:54:05.033Z,101600.78
2018-04-19T00:56:32.518Z,101600.00
2018-04-19T00:59:00.001Z,101602.88
2018-04-19T01:01:27.518Z,101604.03
2018-04-19T01:03:54.999Z,101607.73
2018-04-19T01:06:22.709Z,101602.29
2018-04-19T01:08:50.197Z,101595.38
2018-04-19T01:11:17.685Z,101605.57
2018-04-19T01:13:45.191Z,101598.28
2018-04-19T01:16:12.668Z,101601.23
2018-04-19T01:18:40.193Z,101607.88
2018-04-19T01:21:07.670Z,101598.67
2018-04-19T01:23:35.155Z,101601.77
2018-04-19T01:26:02.670Z,101599.02
2018-04-19T01:28:30.173Z,101605.59
2018-04-19T01:30:57.690Z,101598.11
2018-04-19T01:33:25.169Z,101601.12
2018-04-19T01:36:04.928Z,101604.40
2018-04-19T01:38:32.459Z,101610.84
2018-04-19T01:40:59.909Z,101609.48
2018-04-19T01:43:27.413Z,101613.47
2018-04-19T01:45:54.902Z,101612.13
2018-04-19T01:48:22.473Z,101613.95
2018-04-19T01:50:49.981Z,101614.72
2018-04-19T01:53:17.466Z,101615.22
2018-04-19T01:55:45.005Z,101616.25
2018-04-19T01:58:12.485Z,101614.43
2018-04-19T02:00:40.350Z,101621.91
2018-04-19T02:03:07.825Z,101622.11
2018-04-19T02:05:35.308Z,101624.70
2018-04-19T02:08:02.809Z,101622.58
2018-04-19T02:10:30.313Z,101625.19
2018-04-19T02:12:57.981Z,101624.42
2018-04-19T02:15:25.461Z,101627.77
2018-04-19T02:17:52.945Z,101623.31
2018-04-19T02:20:20.446Z,101623.39
2018-04-19T02:22:47.961Z,101624.20
2018-04-19T02:25:15.505Z,101618.67
2018-04-19T02:27:43.004Z,101625.38
2018-04-19T02:30:10.498Z,101621.06
2018-04-19T02:32:38.005Z,101623.36
2018-04-19T02:35:05.488Z,101622.36
2018-04-19T02:37:33.021Z,101625.45
2018-04-19T02:40:00.503Z,101621.95
2018-04-19T02:42:27.997Z,101618.02
2018-04-19T02:44:55.502Z,101615.45
2018-04-19T02:47:22.989Z,101617.56
2018-04-19T02:49:50.510Z,101617.97
2018-04-19T02:52:17.993Z,101618.92
2018-04-19T02:54:45.505Z,101615.34
2018-04-19T02:57:13.010Z,101619.01
2018-04-19T02:59:40.505Z,101615.88
2018-04-19T03:02:08.303Z,101613.67
2018-04-19T03:04:35.786Z,101613.25
2018-04-19T03:07:03.285Z,101613.25
2018-04-19T03:09:30.789Z,101615.44
2018-04-19T03:11:58.266Z,101618.94
2018-04-19T03:14:26.082Z,101610.16
2018-04-19T03:16:53.561Z,101611.42
2018-04-19T03:19:21.042Z,101610.05
2018-04-19T03:21:48.552Z,101612.73
2018-04-19T03:24:16.025Z,101612.79
2018-04-19T03:26:43.825Z,101617.62
2018-04-19T03:29:11.305Z,101607.95
2018-04-19T03:31:38.777Z,101609.70
2018-04-19T03:34:06.305Z,101606.05
2018-04-19T03:36:33.784Z,101610.62
2018-04-19T03:39:01.293Z,101603.96
2018-04-19T03:41:28.797Z,101609.77
2018-04-19T03:43:56.289Z,101608.88
2018-04-19T03:46:23.793Z,101607.56
2018-04-19T03:48:51.277Z,101608.88
2018-04-19T03:51:18.916Z,101608.45
2018-04-19T03:53:46.397Z,101608.84
2018-04-19T03:56:13.876Z,101605.26
2018-04-19T03:58:41.373Z,101600.44
2018-04-19T04:01:08.954Z,101608.04
2018-04-19T04:03:36.776Z,101605.37
2018-04-19T04:06:04.250Z,101611.15
2018-04-19T04:08:31.737Z,101611.62
2018-04-19T04:10:59.244Z,101608.53
2018-04-19T04:13:26.717Z,101602.41
2018-04-19T04:15:54.229Z,101598.86
2018-04-19T04:18:33.485Z,101599.27
2018-04-19T04:21:18.164Z,101601.89
2018-04-19T04:23:53.391Z,101593.48
2018-04-19T04:26:20.905Z,101595.65
2018-04-19T04:28:48.380Z,101599.15
2018-04-19T04:31:15.952Z,101600.13
2018-04-19T04:33:44.316Z,101601.45
2018-04-19T04:36:11.814Z,101604.55
2018-04-19T04:38:39.469Z,101602.78
2018-04-19T04:41:06.953Z,101612.08
2018-04-19T04:43:34.441Z,101604.11
2018-04-19T04:46:01.938Z,101606.67
2018-04-19T04:48:29.426Z,101609.89
2018-04-19T04:50:57.181Z,101612.50
2018-04-19T04:53:24.670Z,101608.48
2018-04-19T04:55:52.156Z,101616.04
2018-04-19T04:58:19.700Z,101609.81
2018-04-19T05:00:47.189Z,101612.09
2018-04-19T05:03:14.706Z,101610.69
2018-04-19T05:05:42.218Z,101615.06
2018-04-19T05:08:09.749Z,101615.03
2018-04-19T05:10:37.258Z,101617.61
2018-04-19T05:13:04.737Z,101615.21
2018-04-19T05:15:32.546Z,101614.74
2018-04-19T05:18:00.032Z,101605.86
2018-04-19T05:20:27.591Z,101605.39
2018-04-19T05:22:55.058Z,101610.80
2018-04-19T05:25:22.562Z,101610.55
2018-04-19T05:27:50.185Z,101609.37
2018-04-19T05:30:17.666Z,101619.84
2018-04-19T05:32:45.157Z,101616.02
2018-04-19T05:35:12.669Z,101623.98
2018-04-19T05:37:40.470Z,101621.23
2018-04-19T05:40:08.241Z,101623.03
2018-04-19T05:42:35.721Z,101619.69
2018-04-19T05:45:03.234Z,101621.07
2018-04-19T05:47:30.741Z,101615.36
2018-04-19T05:49:58.233Z,101621.27
2018-04-19T05:52:26.009Z,101610.97
2018-04-19T05:54:53.493Z,101617.67
2018-04-19T05:57:20.984Z,101616.21
2018-04-19T05:59:48.495Z,101618.76
2018-04-19T06:02:15.980Z,101620.99
2018-04-19T06:04:43.565Z,101615.43
2018-04-19T06:07:11.050Z,101610.58
2018-04-19T06:09:38.545Z,101618.49
2018-04-19T06:12:06.077Z,101612.41
2018-04-19T06:14:33.590Z,101606.45
2018-04-19T06:17:01.122Z,101616.14
2018-04-19T06:19:28.610Z,101609.61
2018-04-19T06:21:56.097Z,101610.61
2018-04-19T06:24:23.609Z,101601.18
2018-04-19T06:26:51.104Z,101601.85
2018-04-19T06:29:19.074Z,101603.59
2018-04-19T06:31:46.565Z,101599.55
2018-04-19T06:34:14.057Z,101597.25
2018-04-19T06:36:41.570Z,101597.66
2018-04-19T06:39:09.057Z,101597.64
2018-04-19T06:41:36.602Z,101610.95
2018-04-19T06:44:04.108Z,101606.70
2018-04-19T06:46:31.618Z,101603.73
2018-04-19T06:48:59.141Z,101606.66
2018-04-19T06:51:26.628Z,101607.67
2018-04-19T06:53:54.500Z,101605.41
2018-04-19T06:56:22.004Z,101611.03
2018-04-19T06:58:49.498Z,101605.88
2018-04-19T07:01:17.013Z,101607.52
2018-04-19T07:03:44.504Z,101604.14
2018-04-19T07:06:12.244Z,101608.64
2018-04-19T07:08:39.745Z,101610.46
2018-04-19T07:11:07.233Z,101613.18
2018-04-19T07:13:34.754Z,101604.14
2018-04-19T07:16:02.254Z,101598.05
2018-04-19T07:18:29.902Z,101600.97
2018-04-19T07:20:57.682Z,101599.03
2018-04-19T07:23:25.173Z,101596.64
2018-04-19T07:25:52.701Z,101594.69
2018-04-19T07:28:20.313Z,101589.05
2018-04-19T07:30:48.949Z,101593.63
2018-04-19T07:33:16.441Z,101595.00
2018-04-19T07:35:43.955Z,101593.75
2018-04-19T07:38:11.473Z,101593.71
2018-04-19T07:40:38.980Z,101587.23
2018-04-19T07:43:06.760Z,101577.80
2018-04-19T07:45:34.262Z,101585.30
2018-04-19T07:48:01.757Z,101584.84
2018-04-19T07:50:29.304Z,101583.63
2018-04-19T07:52:56.793Z,101581.12
2018-04-19T07:55:24.500Z,101577.03
2018-04-19T07:57:52.038Z,101575.79
2018-04-19T08:00:19.517Z,101579.93
2018-04-19T08:02:47.025Z,101584.00
2018-04-19T08:05:14.542Z,101573.20
2018-04-19T08:07:42.069Z,101570.22
2018-04-19T08:10:09.570Z,101576.37
2018-04-19T08:12:37.077Z,101573.25
2018-04-19T08:15:04.609Z,101569.65
2018-04-19T08:17:32.097Z,101569.66
2018-04-19T08:19:59.632Z,101572.16
2018-04-19T08:22:27.150Z,101566.74
2018-04-19T08:24:54.638Z,101566.66
2018-04-19T08:27:22.164Z,101570.70
2018-04-19T08:29:49.649Z,101567.06
2018-04-19T08:32:17.391Z,101568.17
2018-04-19T08:34:44.889Z,101569.79
2018-04-19T08:37:12.389Z,101563.97
2018-04-19T08:39:39.903Z,101565.37
2018-04-19T08:42:07.423Z,101566.86
2018-04-19T08:44:35.113Z,101571.27
2018-04-19T08:47:02.569Z,101567.91
2018-04-19T08:49:30.065Z,101571.09
2018-04-19T08:51:57.585Z,101576.59
2018-04-19T08:54:25.089Z,101572.83
2018-04-19T08:56:52.660Z,101562.47
2018-04-19T08:59:20.148Z,101575.25
2018-04-19T09:01:47.654Z,101570.84
2018-04-19T09:04:15.166Z,101578.67
2018-04-19T09:06:42.661Z,101575.63
2018-04-19T09:09:10.199Z,101571.45
2018-04-19T09:11:37.697Z,101572.95
2018-04-19T09:14:05.184Z,101571.75
2018-04-19T09:16:32.709Z,101574.66
2018-04-19T09:19:00.196Z,101576.95
2018-04-19T09:21:28.101Z,101578.44
2018-04-19T09:23:55.589Z,101572.33
2018-04-19T09:26:23.091Z,101573.05
2018-04-19T09:28:50.604Z,101569.41
2018-04-19T09:31:18.152Z,101570.19
2018-04-19T09:33:45.853Z,101565.09
2018-04-19T09:36:13.353Z,101569.48
2018-04-19T09:38:40.917Z,101568.87
2018-04-19T09:41:08.478Z,101567.45
2018-04-19T09:43:35.980Z,101562.37
2018-04-19T09:46:03.510Z,101564.08
2018-04-19T09:48:31.010Z,101560.19
2018-04-19T09:50:58.496Z,101565.09
2018-04-19T09:53:26.005Z,101564.52
2018-04-19T09:55:53.513Z,101549.80
2018-04-19T09:58:21.132Z,101556.21
2018-04-19T10:00:48.637Z,101557.59
2018-04-19T10:03:18.868Z,101553.35
2018-04-19T10:05:47.344Z,101553.82
2018-04-19T10:08:14.857Z,101552.72
2018-04-19T10:10:42.400Z,101546.05
2018-04-19T10:13:09.912Z,101543.58
2018-04-19T10:15:37.406Z,101543.48
2018-04-19T10:18:04.916Z,101546.11
2018-04-19T10:20:32.425Z,101541.91
2018-04-19T10:23:00.053Z,101542.77
2018-04-19T10:25:27.559Z,101534.81
2018-04-19T10:27:55.053Z,101533.44
2018-04-19T10:30:22.587Z,101529.60
2018-04-19T10:32:50.097Z,101522.08
2018-04-19T10:35:17.621Z,101521.19
2018-04-19T10:37:45.127Z,101517.83
2018-04-19T10:40:12.617Z,101510.75
2018-04-19T10:42:40.143Z,101513.05
2018-04-19T10:45:07.637Z,101514.86
2018-04-19T10:47:35.266Z,101509.62
2018-04-19T10:50:02.828Z,101509.72
2018-04-19T10:52:30.329Z,101502.73
2018-04-19T10:54:57.861Z,101500.55
2018-04-19T10:57:25.367Z,101513.31
2018-04-19T10:59:53.129Z,101510.33
2018-04-19T11:02:20.621Z,101496.48
2018-04-19T11:04:48.110Z,101500.41
2018-04-19T11:07:15.629Z,101492.23
2018-04-19T11:09:43.125Z,101490.59
2018-04-19T11:12:10.666Z,101491.36
2018-04-19T11:14:38.156Z,101488.42
2018-04-19T11:17:05.649Z,101493.97
2018-04-19T11:19:33.177Z,101487.84
2018-04-19T11:22:00.665Z,101487.54
2018-04-19T11:24:28.464Z,101485.72
2018-04-19T11:26:55.981Z,101486.36
2018-04-19T11:29:23.474Z,101481.34
2018-04-19T11:31:50.986Z,101475.33
2018-04-19T11:34:18.474Z,101476.70
2018-04-19T11:36:46.326Z,101470.30
2018-04-19T11:39:13.817Z,101476.12
2018-04-19T11:41:41.305Z,101467.95
2018-04-19T11:44:08.829Z,101474.48
2018-04-19T11:46:36.362Z,101463.84
2018-04-19T11:49:03.949Z,101465.23
2018-04-19T11:51:31.508Z,101461.81
2018-04-19T11:53:58.993Z,101450.70
2018-04-19T11:56:26.504Z,101452.78
2018-04-19T11:58:53.993Z,101454.82
2018-04-19T12:01:21.513Z,101449.75
2018-04-19T12:03:49.017Z,101449.19
2018-04-19T12:06:16.513Z,101447.06
2018-04-19T12:08:44.021Z,101444.67
2018-04-19T12:11:11.505Z,101441.88
2018-04-19T12:13:39.190Z,101432.86
2018-04-19T12:16:06.696Z,101429.03
2018-04-19T12:18:34.173Z,101430.52
2018-04-19T12:21:01.937Z,101427.50
2018-04-19T12:23:29.425Z,101429.99
2018-04-19T12:25:57.184Z,101420.80
2018-04-19T12:28:24.672Z,101420.16
2018-04-19T12:30:52.178Z,101423.97
2018-04-19T12:33:19.741Z,101419.39
2018-04-19T12:35:47.225Z,101410.52
2018-04-19T12:38:14.856Z,101406.38
2018-04-19T12:40:42.345Z,101407.05
2018-04-19T12:43:09.829Z,101406.23
2018-04-19T12:45:37.333Z,101404.52
2018-04-19T12:48:04.957Z,101400.47
2018-04-19T12:50:32.811Z,101397.19
2018-04-19T12:53:00.321Z,101393.14
2018-04-19T12:55:27.798Z,101383.33
2018-04-19T12:57:55.306Z,101388.41
2018-04-19T13:00:22.813Z,101385.00
2018-04-19T13:02:50.334Z,101374.81
2018-04-19T13:05:17.830Z,101383.61
2018-04-19T13:07:45.333Z,101377.20
2018-04-19T13:10:12.849Z,101367.89
2018-04-19T13:12:41.081Z,101374.44
2018-04-19T13:15:08.761Z,101366.30
2018-04-19T13:17:36.393Z,101370.33
2018-04-19T13:20:03.881Z,101357.96
2018-04-19T13:22:31.385Z,101354.78
2018-04-19T13:24:58.909Z,101342.56
2018-04-19T13:27:26.429Z,101348.28
2018-04-19T13:29:53.933Z,101340.70
2018-04-19T13:32:21.413Z,101342.12
2018-04-19T13:34:48.942Z,101341.31
2018-04-19T13:37:16.453Z,101334.17
2018-04-19T13:39:43.965Z,101333.23
2018-04-19T13:42:11.458Z,101328.91
2018-04-19T13:44:38.954Z,101330.58
2018-04-19T13:47:06.461Z,101315.63
2018-04-19T13:49:33.945Z,101310.98
2018-04-19T13:52:01.635Z,101310.46
2018-04-19T13:54:29.117Z,101308.67
2018-04-19T13:56:56.609Z,101311.29
2018-04-19T13:59:24.125Z,101306.48
2018-04-19T14:01:51.647Z,101301.77
2018-04-19T14:04:19.269Z,101303.31
2018-04-19T14:06:46.749Z,101296.48
2018-04-19T14:09:14.252Z,101289.81
2018-04-19T14:11:41.777Z,101290.08
2018-04-19T14:14:09.262Z,101286.48
2018-04-19T14:16:36.859Z,101286.91
2018-04-19T14:19:04.353Z,101284.87
2018-04-19T14:21:31.828Z,101274.34
2018-04-19T14:23:59.337Z,101276.98
2018-04-19T14:26:26.843Z,101269.69
2018-04-19T14:28:54.376Z,101277.84
2018-04-19T14:31:21.853Z,101271.98
2018-04-19T14:33:49.358Z,101270.84
2018-04-19T14:36:16.857Z,101271.77
2018-04-19T14:38:44.354Z,101264.64
2018-04-19T14:41:12.253Z,101266.58
2018-04-19T14:43:39.768Z,101262.55
2018-04-19T14:46:07.270Z,101249.70
2018-04-19T14:48:34.777Z,101253.52
2018-04-19T14:51:02.262Z,101247.76
2018-04-19T14:53:29.909Z,101254.22
2018-04-19T14:55:57.397Z,101249.52
2018-04-19T14:58:24.879Z,101251.16
2018-04-19T15:00:52.418Z,101242.25
2018-04-19T15:03:19.893Z,101246.74
2018-04-19T15:05:47.639Z,101237.92
2018-04-19T15:08:15.122Z,101235.27
2018-04-19T15:10:42.602Z,101229.63
2018-04-19T15:13:10.137Z,101235.95
2018-04-19T15:15:37.672Z,101230.66
2018-04-19T15:18:05.446Z,101228.61
2018-04-19T15:20:32.937Z,101226.81
2018-04-19T15:23:00.439Z,101224.92
2018-04-19T15:25:27.946Z,101216.81
2018-04-19T15:27:55.427Z,101221.14
2018-04-19T15:30:22.948Z,101211.23
2018-04-19T15:32:50.425Z,101211.98
2018-04-19T15:35:17.909Z,101213.15
2018-04-19T15:37:45.418Z,101215.06
2018-04-19T15:40:12.901Z,101210.35
2018-04-19T15:42:41.341Z,101210.53
2018-04-19T15:45:08.851Z,101202.92
2018-04-19T15:47:36.335Z,101207.43
2018-04-19T15:50:03.857Z,101201.36
2018-04-19T15:52:31.359Z,101196.47
2018-04-19T15:54:59.131Z,101197.70
2018-04-19T15:57:26.610Z,101196.56
2018-04-19T15:59:54.097Z,101193.20
2018-04-19T16:02:21.607Z,101192.48
2018-04-19T16:04:49.095Z,101194.36
2018-04-19T16:07:16.976Z,101194.58
2018-04-19T16:09:44.484Z,101192.18
2018-04-19T16:12:11.965Z,101190.62
2018-04-19T16:14:39.470Z,101190.48
2018-04-19T16:17:07.019Z,101189.61
2018-04-19T16:19:34.733Z,101189.67
2018-04-19T16:22:02.239Z,101189.02
2018-04-19T16:24:29.721Z,101184.36
2018-04-19T16:26:57.245Z,101184.93
2018-04-19T16:29:24.733Z,101183.56
2018-04-19T16:31:52.285Z,101182.58
2018-04-19T16:34:19.771Z,101186.73
2018-04-19T16:36:47.285Z,101178.11
2018-04-19T16:39:14.793Z,101186.17
2018-04-19T16:41:42.284Z,101176.81
2018-04-19T16:44:09.790Z,101179.28
2018-04-19T16:46:37.429Z,101180.78
2018-04-19T16:49:04.935Z,101181.78
2018-04-19T16:51:32.425Z,101174.41
2018-04-19T16:54:00.128Z,101175.51
2018-04-19T16:56:27.632Z,101180.13
2018-04-19T16:58:55.125Z,101176.49
2018-04-19T17:01:22.666Z,101178.72
2018-04-19T17:03:50.154Z,101170.48
2018-04-19T17:06:17.682Z,101169.00
2018-04-19T17:08:45.173Z,101176.73
2018-04-19T17:11:12.921Z,101169.89
2018-04-19T17:13:40.420Z,101173.73
2018-04-19T17:16:07.909Z,101170.66
2018-04-19T17:18:35.412Z,101172.72
2018-04-19T17:21:02.897Z,101174.13
2018-04-19T17:23:30.403Z,101178.31
2018-04-19T17:25:57.906Z,101171.94
2018-04-19T17:28:25.393Z,101173.72
2018-04-19T17:30:52.909Z,101163.75
2018-04-19T17:33:20.412Z,101164.52
2018-04-19T17:35:47.956Z,101164.55
2018-04-19T17:38:15.442Z,101162.84
2018-04-19T17:40:42.958Z,101161.28
2018-04-19T17:43:10.445Z,101166.66
2018-04-19T17:45:37.920Z,101162.82
2018-04-19T17:48:05.477Z,101165.77
2018-04-19T17:50:32.937Z,101168.99
2018-04-19T17:53:00.453Z,101171.82
2018-04-19T17:55:27.949Z,101169.52
2018-04-19T17:57:55.574Z,101174.48
2018-04-19T18:00:23.088Z,101176.41
2018-04-19T18:02:50.577Z,101172.50
2018-04-19T18:05:18.103Z,101171.63
2018-04-19T18:07:45.606Z,101168.09
2018-04-19T18:10:13.358Z,101175.05
2018-04-19T18:12:40.852Z,101179.52
2018-04-19T18:15:08.347Z,101179.27
2018-04-19T18:17:35.853Z,101182.99
2018-04-19T18:20:03.354Z,101176.27
2018-04-19T18:22:30.893Z,101182.36
2018-04-19T18:24:58.374Z,101181.27
2018-04-19T18:27:25.886Z,101179.00
2018-04-19T18:29:53.393Z,101183.63
2018-04-19T18:32:20.889Z,101189.34
2018-04-19T18:34:48.420Z,101188.23
2018-04-19T18:37:15.973Z,101191.12
2018-04-19T18:39:43.806Z,101187.64
2018-04-19T18:42:11.293Z,101187.55
2018-04-19T18:44:39.178Z,101195.52
2018-04-19T18:47:06.690Z,101192.75
2018-04-19T18:49:34.998Z,101195.91
2018-04-19T18:52:02.685Z,101197.45
2018-04-19T18:54:30.173Z,101195.89
2018-04-19T18:56:57.673Z,101198.77
2018-04-19T18:59:25.181Z,101202.60
2018-04-19T19:01:52.680Z,101195.63
2018-04-19T19:04:20.197Z,101200.64
2018-04-19T19:06:47.700Z,101204.16
2018-04-19T19:09:15.412Z,101207.00
2018-04-19T19:11:42.922Z,101209.09
2018-04-19T19:14:10.412Z,101211.17
2018-04-19T19:16:37.965Z,101212.66
2018-04-19T19:19:17.468Z,101215.28
2018-04-19T19:21:45.054Z,101219.38
2018-04-19T19:24:12.550Z,101231.26
2018-04-19T19:26:40.076Z,101231.62
2018-04-19T19:29:07.609Z,101232.69
2018-04-19T19:31:35.168Z,101229.74
2018-04-19T19:34:03.472Z,101230.75
2018-04-19T19:36:30.978Z,101235.63
2018-04-19T19:38:58.543Z,101245.89
2018-04-19T19:41:26.120Z,101246.15
2018-04-19T19:43:53.993Z,101241.10
2018-04-19T19:46:21.503Z,101246.87
2018-04-19T19:48:49.958Z,101250.84
2018-04-19T19:51:17.480Z,101250.25
2018-04-19T19:53:44.989Z,101247.28
2018-04-19T19:56:12.506Z,101249.23
2018-04-19T19:58:40.001Z,101251.27
2018-04-19T20:01:07.812Z,101247.22
2018-04-19T20:03:35.305Z,101244.41
2018-04-19T20:06:02.798Z,101246.88
2018-04-19T20:08:30.338Z,101248.12
2018-04-19T20:10:57.849Z,101244.73
2018-04-19T20:13:25.377Z,101243.69
2018-04-19T20:15:52.875Z,101247.68
2018-04-19T20:18:20.509Z,101241.20
2018-04-19T20:20:48.000Z,101240.91
2018-04-19T20:23:15.501Z,101241.55
2018-04-19T20:25:43.010Z,101238.72
2018-04-19T20:28:10.528Z,101239.48
2018-04-19T20:30:38.082Z,101247.70
2018-04-19T20:33:05.573Z,101245.48
2018-04-19T20:35:33.070Z,101247.30
2018-04-19T20:38:00.597Z,101242.62
2018-04-19T20:40:28.098Z,101246.65
2018-04-19T20:42:55.822Z,101241.71
2018-04-19T20:45:23.341Z,101247.20
2018-04-19T20:47:50.828Z,101244.77
2018-04-19T20:50:18.340Z,101248.44
2018-04-19T20:52:45.833Z,101246.98
2018-04-19T20:55:13.366Z,101247.05
2018-04-19T20:57:40.849Z,101250.70
2018-04-19T21:00:08.349Z,101253.97
2018-04-19T21:02:35.854Z,101247.48
2018-04-19T21:05:03.329Z,101259.78
2018-04-19T21:07:31.033Z,101254.69
2018-04-19T21:09:58.545Z,101255.82
2018-04-19T21:12:26.029Z,101261.37
2018-04-19T21:14:53.540Z,101255.85
2018-04-19T21:17:21.025Z,101252.28
2018-04-19T21:19:48.702Z,101259.12
2018-04-19T21:22:16.193Z,101252.97
2018-04-19T21:24:43.689Z,101257.98
2018-04-19T21:27:11.217Z,101255.20
2018-04-19T21:29:38.709Z,101253.72
2018-04-19T21:32:06.259Z,101257.84
2018-04-19T21:34:33.745Z,101252.75
2018-04-19T21:37:01.233Z,101251.63
2018-04-19T21:39:28.747Z,101250.75
2018-04-19T21:41:56.227Z,101254.08
2018-04-19T21:44:24.004Z,101249.91
2018-04-19T21:46:51.509Z,101249.55
2018-04-19T21:49:19.055Z,101244.11
2018-04-19T21:51:46.560Z,101248.22
2018-04-19T21:54:14.038Z,101246.66
2018-04-19T21:56:41.886Z,101242.80
2018-04-19T21:59:09.369Z,101244.05
2018-04-19T22:01:36.888Z,101248.08
2018-04-19T22:04:04.393Z,101244.02
2018-04-19T22:06:31.885Z,101243.55
2018-04-19T22:08:59.397Z,101244.28
2018-04-19T22:11:26.877Z,101243.69
2018-04-19T22:13:54.357Z,101245.90
2018-04-19T22:16:21.865Z,101246.06
2018-04-19T22:18:49.349Z,101244.17
2018-04-19T22:21:16.992Z,101238.48
2018-04-19T22:23:44.482Z,101242.60
2018-04-19T22:26:11.971Z,101246.04
2018-04-19T22:28:39.493Z,101238.31
2018-04-19T22:31:06.972Z,101242.72
2018-04-19T22:33:34.478Z,101243.34
2018-04-19T22:36:01.980Z,101243.05
2018-04-19T22:38:29.483Z,101241.64
2018-04-19T22:40:56.992Z,101245.09
2018-04-19T22:43:24.488Z,101241.24
2018-04-19T22:45:51.993Z,101243.73
2018-04-19T22:48:19.500Z,101246.13
2018-04-19T22:50:47.001Z,101245.99
2018-04-19T22:53:14.506Z,101241.39
2018-04-19T22:55:42.002Z,101243.84
2018-04-19T22:58:09.484Z,101244.28
2018-04-19T23:00:37.005Z,101244.66
2018-04-19T23:03:04.489Z,101248.73
2018-04-19T23:05:31.977Z,101244.88
2018-04-19T23:07:59.478Z,101245.73
2018-04-19T23:10:26.953Z,101248.46
2018-04-19T23:12:54.445Z,101252.33
2018-04-19T23:15:21.957Z,101252.70
2018-04-19T23:17:49.437Z,101240.73
2018-04-19T23:20:16.945Z,101247.73
2018-04-19T23:22:44.736Z,101249.40
2018-04-19T23:25:12.214Z,101246.80
2018-04-19T23:27:39.697Z,101244.50
2018-04-19T23:30:07.474Z,101248.33
2018-04-19T23:32:34.969Z,101250.45
2018-04-19T23:35:02.451Z,101252.14
2018-04-19T23:37:30.079Z,101252.48
2018-04-19T23:39:57.568Z,101246.41
2018-04-19T23:42:25.050Z,101245.58
2018-04-19T23:44:52.631Z,101249.72
2018-04-19T23:47:20.113Z,101250.41
2018-04-19T23:49:47.593Z,101248.32
2018-04-19T23:52:15.394Z,101246.95
2018-04-19T23:54:42.889Z,101247.69
2018-04-19T23:57:10.369Z,101248.34
2018-04-19T23:59:38.213Z,101242.71
